createdAt,value
2019-04-20T00:00:30.541Z,1014.4
2019-04-20T00:01:32.236Z,1014.5
2019-04-20T00:02:29.621Z,1014.4
2019-04-20T00:03:35.624Z,1014.5
2019-04-20T00:04:35.267Z,1014.4
2019-04-20T00:05:31.312Z,1014.4
2019-04-20T00:06:41.701Z,1014.5
2019-04-20T00:07:35.666Z,1014.4
2019-04-20T00:08:36.514Z,1014.4
2019-04-20T00:09:36.977Z,1014.4
2019-04-20T00:10:45.237Z,1014.4
2019-04-20T00:11:48.408Z,1014.4
2019-04-20T00:12:52.077Z,1014.4
2019-04-20T00:13:49.871Z,1014.4
2019-04-20T00:14:39.106Z,1014.4
2019-04-20T00:15:38.927Z,1014.4
2019-04-20T00:16:39.898Z,1014.4
2019-04-20T00:17:45.902Z,1014.4
2019-04-20T00:18:47.958Z,1014.4
2019-04-20T00:19:47.009Z,1014.4
2019-04-20T00:20:42.226Z,1014.4
2019-04-20T00:21:46.985Z,1014.4
2019-04-20T00:22:48.707Z,1014.4
2019-04-20T00:23:47.731Z,1014.4
2019-04-20T00:24:45.417Z,1014.4
2019-04-20T00:25:54.931Z,1014.3
2019-04-20T00:27:19.282Z,1014.3
2019-04-20T00:28:04.752Z,1014.4
2019-04-20T00:29:07.007Z,1014.3
2019-04-20T00:30:04.435Z,1014.4
2019-04-20T00:31:07.227Z,1014.4
2019-04-20T00:32:05.392Z,1014.3
2019-04-20T00:33:01.802Z,1014.4
2019-04-20T00:34:02.777Z,1014.3
2019-04-20T00:34:53.952Z,1014.3
2019-04-20T00:35:54.847Z,1014.3
2019-04-20T00:36:56.032Z,1014.3
2019-04-20T00:37:55.398Z,1014.4
2019-04-20T00:38:59.753Z,1014.3
2019-04-20T00:39:57.787Z,1014.3
2019-04-20T00:41:02.729Z,1014.3
2019-04-20T00:42:03.483Z,1014.3
2019-04-20T00:43:00.360Z,1014.3
2019-04-20T00:44:06.893Z,1014.3
2019-04-20T00:45:08.397Z,1014.3
2019-04-20T00:46:11.804Z,1014.3
2019-04-20T00:47:12.027Z,1014.3
2019-04-20T00:48:16.855Z,1014.3
2019-04-20T00:49:20.641Z,1014.3
2019-04-20T00:50:27.022Z,1014.3
2019-04-20T00:51:27.869Z,1014.3
2019-04-20T00:53:19.560Z,1014.3
2019-04-20T00:54:09.443Z,1014.3
2019-04-20T00:55:08.904Z,1014.3
2019-04-20T00:56:09.997Z,1014.3
2019-04-20T00:57:20.477Z,1014.3
2019-04-20T00:58:21.213Z,1014.3
2019-04-20T00:59:26.036Z,1014.3
2019-04-20T01:00:32.446Z,1014.3
2019-04-20T01:01:37.489Z,1014.4
2019-04-20T01:02:30.172Z,1014.4
2019-04-20T01:03:36.921Z,1014.4
2019-04-20T01:04:37.816Z,1014.3
2019-04-20T01:05:38.855Z,1014.3
2019-04-20T01:06:34.098Z,1014.3
2019-04-20T01:07:30.822Z,1014.3
2019-04-20T01:08:19.619Z,1014.3
2019-04-20T01:09:20.422Z,1014.3
2019-04-20T01:10:21.607Z,1014.3
2019-04-20T01:11:26.993Z,1014.3
2019-04-20T01:12:26.311Z,1014.3
2019-04-20T01:13:25.143Z,1014.3
2019-04-20T01:14:37.554Z,1014.4
2019-04-20T01:15:36.414Z,1014.3
2019-04-20T01:16:36.822Z,1014.3
2019-04-20T01:17:26.723Z,1014.3
2019-04-20T01:18:27.412Z,1014.3
2019-04-20T01:19:28.094Z,1014.3
2019-04-20T01:20:28.781Z,1014.3
2019-04-20T01:21:31.773Z,1014.3
2019-04-20T01:22:40.289Z,1014.3
2019-04-20T01:23:40.180Z,1014.2
2019-04-20T01:24:37.112Z,1014.3
2019-04-20T01:25:37.698Z,1014.3
2019-04-20T01:26:41.913Z,1014.3
2019-04-20T01:27:49.735Z,1014.3
2019-04-20T01:28:51.227Z,1014.3
2019-04-20T01:29:43.840Z,1014.2
2019-04-20T01:30:43.152Z,1014.3
2019-04-20T01:31:54.567Z,1014.3
2019-04-20T01:32:55.149Z,1014.2
2019-04-20T01:33:50.633Z,1014.3
2019-04-20T01:34:53.311Z,1014.3
2019-04-20T01:35:56.930Z,1014.3
2019-04-20T01:36:55.693Z,1014.3
2019-04-20T01:38:02.663Z,1014.3
2019-04-20T01:38:56.774Z,1014.3
2019-04-20T01:39:50.208Z,1014.3
2019-04-20T01:40:44.490Z,1014.2
2019-04-20T01:41:45.446Z,1014.3
2019-04-20T01:42:46.736Z,1014.2
2019-04-20T01:43:46.375Z,1014.3
2019-04-20T01:44:50.298Z,1014.2
2019-04-20T01:45:52.317Z,1014.2
2019-04-20T01:46:53.291Z,1014.3
2019-04-20T01:47:52.742Z,1014.3
2019-04-20T01:48:50.613Z,1014.3
2019-04-20T01:49:57.559Z,1014.3
2019-04-20T01:50:59.625Z,1014.2
2019-04-20T01:52:05.784Z,1014.3
2019-04-20T01:53:03.492Z,1014.3
2019-04-20T01:54:06.629Z,1014.3
2019-04-20T01:55:11.414Z,1014.3
2019-04-20T01:56:15.416Z,1014.3
2019-04-20T01:57:04.768Z,1014.3
2019-04-20T01:58:12.406Z,1014.3
2019-04-20T01:59:10.647Z,1014.3
2019-04-20T02:00:08.490Z,1014.3
2019-04-20T02:00:59.511Z,1014.2
2019-04-20T02:02:04.627Z,1014.2
2019-04-20T02:03:02.375Z,1014.3
2019-04-20T02:04:02.795Z,1014.2
2019-04-20T02:05:11.320Z,1014.2
2019-04-20T02:06:06.364Z,1014.2
2019-04-20T02:07:04.943Z,1014.2
2019-04-20T02:08:08.740Z,1014.3
2019-04-20T02:09:09.511Z,1014.3
2019-04-20T02:10:08.332Z,1014.2
2019-04-20T02:11:07.400Z,1014.3
2019-04-20T02:12:12.157Z,1014.3
2019-04-20T02:13:07.596Z,1014.3
2019-04-20T02:14:10.246Z,1014.2
2019-04-20T02:15:17.133Z,1014.3
2019-04-20T02:16:15.836Z,1014.3
2019-04-20T02:17:20.008Z,1014.3
2019-04-20T02:18:22.686Z,1014.3
2019-04-20T02:19:27.841Z,1014.3
2019-04-20T02:20:35.907Z,1014.3
2019-04-20T02:21:27.652Z,1014.3
2019-04-20T02:22:30.604Z,1014.3
2019-04-20T02:23:25.318Z,1014.3
2019-04-20T02:24:15.728Z,1014.3
2019-04-20T02:25:14.309Z,1014.3
2019-04-20T02:26:16.004Z,1014.3
2019-04-20T02:27:19.718Z,1014.3
2019-04-20T02:28:36.177Z,1014.3
2019-04-20T02:29:39.897Z,1014.3
2019-04-20T02:30:57.962Z,1014.3
2019-04-20T02:32:05.087Z,1014.3
2019-04-20T02:32:55.540Z,1014.4
2019-04-20T02:33:58.071Z,1014.3
2019-04-20T02:34:54.755Z,1014.3
2019-04-20T02:36:04.845Z,1014.3
2019-04-20T02:37:14.357Z,1014.3
2019-04-20T02:39:21.906Z,1014.2
2019-04-20T02:40:00.911Z,1014.2
2019-04-20T02:41:09.858Z,1014.3
2019-04-20T02:42:14.369Z,1014.2
2019-04-20T02:43:25.018Z,1014.2
2019-04-20T02:44:15.933Z,1014.3
2019-04-20T02:45:18.646Z,1014.3
2019-04-20T02:46:06.768Z,1014.3
2019-04-20T02:47:14.396Z,1014.3
2019-04-20T02:48:07.986Z,1014.3
2019-04-20T02:50:19.190Z,1014.2
2019-04-20T02:51:13.284Z,1014.2
2019-04-20T02:52:22.610Z,1014.2
2019-04-20T02:53:23.614Z,1014.2
2019-04-20T02:54:40.828Z,1014.2
2019-04-20T02:55:26.371Z,1014.2
2019-04-20T02:56:32.438Z,1014.2
2019-04-20T02:57:33.569Z,1014.2
2019-04-20T02:58:29.088Z,1014.2
2019-04-20T03:00:28.797Z,1014.2
2019-04-20T03:01:23.314Z,1014.2
2019-04-20T03:02:18.423Z,1014.2
2019-04-20T03:03:15.882Z,1014.2
2019-04-20T03:04:05.610Z,1014.2
2019-04-20T03:05:16.217Z,1014.2
2019-04-20T03:06:18.526Z,1014.1
2019-04-20T03:07:15.211Z,1014.1
2019-04-20T03:08:22.139Z,1014.1
2019-04-20T03:09:27.221Z,1014.1
2019-04-20T03:10:36.313Z,1014.1
2019-04-20T03:11:37.867Z,1014.2
2019-04-20T03:12:35.851Z,1014.1
2019-04-20T03:13:31.995Z,1014.2
2019-04-20T03:14:27.000Z,1014.1
2019-04-20T03:15:32.906Z,1014.1
2019-04-20T03:16:32.134Z,1014.1
2019-04-20T03:17:36.506Z,1014.1
2019-04-20T03:18:32.523Z,1014.1
2019-04-20T03:19:28.444Z,1014.1
2019-04-20T03:20:36.225Z,1014.0
2019-04-20T03:21:38.030Z,1014.0
2019-04-20T03:23:02.401Z,1014.1
2019-04-20T03:23:47.123Z,1014.1
2019-04-20T03:24:47.002Z,1014.1
2019-04-20T03:25:45.074Z,1014.1
2019-04-20T03:26:37.894Z,1014.1
2019-04-20T03:27:36.447Z,1014.1
2019-04-20T03:28:38.818Z,1014.1
2019-04-20T03:29:43.870Z,1014.1
2019-04-20T03:34:19.394Z,1014.0
2019-04-20T03:36:00.354Z,1014.0
2019-04-20T03:37:00.635Z,1014.0
2019-04-20T03:38:00.152Z,1014.0
2019-04-20T03:38:53.608Z,1014.0
2019-04-20T03:39:47.589Z,1014.0
2019-04-20T03:40:48.377Z,1014.0
2019-04-20T03:41:43.539Z,1014.0
2019-04-20T03:42:38.033Z,1014.0
2019-04-20T03:43:39.021Z,1014.1
2019-04-20T03:44:48.163Z,1014.0
2019-04-20T03:45:48.628Z,1014.1
2019-04-20T03:46:47.707Z,1014.1
2019-04-20T03:47:54.379Z,1014.1
2019-04-20T03:49:01.361Z,1014.0
2019-04-20T03:50:06.082Z,1014.1
2019-04-20T03:51:04.593Z,1014.1
2019-04-20T03:52:02.278Z,1014.1
2019-04-20T03:53:08.695Z,1014.1
2019-04-20T03:54:05.913Z,1014.1
2019-04-20T03:55:09.523Z,1014.1
2019-04-20T03:56:02.209Z,1014.1
2019-04-20T03:57:13.732Z,1014.1
2019-04-20T03:58:08.975Z,1014.1
2019-04-20T03:59:07.723Z,1014.1
2019-04-20T04:00:10.161Z,1014.0
2019-04-20T04:01:14.687Z,1014.1
2019-04-20T04:03:26.205Z,1014.1
2019-04-20T04:04:15.237Z,1014.1
2019-04-20T04:05:16.478Z,1014.0
2019-04-20T04:06:05.434Z,1014.1
2019-04-20T04:07:01.001Z,1014.1
2019-04-20T04:08:09.459Z,1014.1
2019-04-20T04:09:14.999Z,1014.1
2019-04-20T04:10:14.404Z,1014.1
2019-04-20T04:11:16.261Z,1014.0
2019-04-20T04:12:12.217Z,1014.0
2019-04-20T04:13:01.053Z,1014.0
2019-04-20T04:14:01.125Z,1014.0
2019-04-20T04:15:02.280Z,1014.0
2019-04-20T04:16:06.694Z,1014.1
2019-04-20T04:17:04.618Z,1014.0
2019-04-20T04:18:11.089Z,1014.0
2019-04-20T04:19:12.814Z,1014.1
2019-04-20T04:20:11.646Z,1014.1
2019-04-20T04:21:12.866Z,1014.1
2019-04-20T04:22:18.048Z,1014.0
2019-04-20T04:23:27.042Z,1014.1
2019-04-20T04:24:22.868Z,1014.0
2019-04-20T04:25:21.059Z,1014.1
2019-04-20T04:26:26.256Z,1014.1
2019-04-20T04:27:32.625Z,1014.1
2019-04-20T04:28:29.955Z,1014.1
2019-04-20T04:29:33.410Z,1014.1
2019-04-20T04:30:25.318Z,1014.1
2019-04-20T04:31:33.879Z,1014.1
2019-04-20T04:33:00.442Z,1014.1
2019-04-20T04:34:34.691Z,1014.1
2019-04-20T04:35:30.215Z,1014.1
2019-04-20T04:36:36.048Z,1014.2
2019-04-20T04:37:38.739Z,1014.2
2019-04-20T04:38:42.453Z,1014.2
2019-04-20T04:39:46.674Z,1014.2
2019-04-20T04:40:49.700Z,1014.3
2019-04-20T04:41:43.967Z,1014.2
2019-04-20T04:42:48.264Z,1014.2
2019-04-20T04:43:44.433Z,1014.3
2019-04-20T04:44:42.226Z,1014.2
2019-04-20T04:45:30.087Z,1014.3
2019-04-20T04:46:29.209Z,1014.3
2019-04-20T04:47:30.480Z,1014.2
2019-04-20T04:48:35.717Z,1014.2
2019-04-20T04:49:34.883Z,1014.3
2019-04-20T04:50:33.132Z,1014.2
2019-04-20T04:51:42.436Z,1014.3
2019-04-20T04:52:42.913Z,1014.2
2019-04-20T04:53:45.197Z,1014.3
2019-04-20T04:54:46.191Z,1014.3
2019-04-20T04:55:45.806Z,1014.3
2019-04-20T04:56:37.616Z,1014.3
2019-04-20T04:57:37.257Z,1014.3
2019-04-20T04:58:38.494Z,1014.3
2019-04-20T04:59:38.640Z,1014.2
2019-04-20T05:00:40.718Z,1014.2
2019-04-20T05:01:40.506Z,1014.2
2019-04-20T05:02:48.841Z,1014.3
2019-04-20T05:04:09.952Z,1014.2
2019-04-20T05:05:07.070Z,1014.3
2019-04-20T05:06:03.252Z,1014.3
2019-04-20T05:06:58.408Z,1014.3
2019-04-20T05:08:01.905Z,1014.3
2019-04-20T05:08:53.381Z,1014.3
2019-04-20T05:09:48.703Z,1014.3
2019-04-20T05:10:49.979Z,1014.3
2019-04-20T05:11:59.764Z,1014.3
2019-04-20T05:12:52.872Z,1014.4
2019-04-20T05:13:58.314Z,1014.4
2019-04-20T05:15:02.286Z,1014.4
2019-04-20T05:16:10.961Z,1014.4
2019-04-20T05:17:07.351Z,1014.4
2019-04-20T05:18:11.932Z,1014.4
2019-04-20T05:19:18.964Z,1014.3
2019-04-20T05:20:18.063Z,1014.4
2019-04-20T05:21:23.028Z,1014.4
2019-04-20T05:22:21.857Z,1014.4
2019-04-20T05:23:16.266Z,1014.4
2019-04-20T05:24:17.901Z,1014.4
2019-04-20T05:25:22.317Z,1014.4
2019-04-20T05:26:25.817Z,1014.5
2019-04-20T05:27:27.486Z,1014.5
2019-04-20T05:28:20.685Z,1014.5
2019-04-20T05:29:14.497Z,1014.5
2019-04-20T05:30:08.116Z,1014.5
2019-04-20T05:31:11.375Z,1014.5
2019-04-20T05:32:16.131Z,1014.5
2019-04-20T05:33:25.482Z,1014.5
2019-04-20T05:34:30.874Z,1014.5
2019-04-20T05:35:30.941Z,1014.5
2019-04-20T05:36:38.480Z,1014.5
2019-04-20T05:37:41.425Z,1014.5
2019-04-20T05:38:41.775Z,1014.5
2019-04-20T05:39:38.213Z,1014.5
2019-04-20T05:40:38.335Z,1014.5
2019-04-20T05:41:38.319Z,1014.5
2019-04-20T05:42:44.256Z,1014.5
2019-04-20T05:43:36.258Z,1014.5
2019-04-20T05:44:45.571Z,1014.5
2019-04-20T05:45:39.903Z,1014.5
2019-04-20T05:46:47.910Z,1014.5
2019-04-20T05:47:48.429Z,1014.5
2019-04-20T05:48:50.873Z,1014.5
2019-04-20T05:49:46.821Z,1014.5
2019-04-20T05:50:52.155Z,1014.5
2019-04-20T05:51:47.613Z,1014.5
2019-04-20T05:52:59.854Z,1014.5
2019-04-20T05:53:53.273Z,1014.5
2019-04-20T05:54:57.672Z,1014.5
2019-04-20T05:55:54.689Z,1014.5
2019-04-20T05:56:58.877Z,1014.5
2019-04-20T05:58:02.015Z,1014.5
2019-04-20T05:58:56.955Z,1014.5
2019-04-20T06:00:07.139Z,1014.5
2019-04-20T06:01:03.477Z,1014.5
2019-04-20T06:02:03.702Z,1014.5
2019-04-20T06:02:59.065Z,1014.5
2019-04-20T06:04:03.012Z,1014.5
2019-04-20T06:05:12.980Z,1014.4
2019-04-20T06:06:21.797Z,1014.4
2019-04-20T06:07:08.821Z,1014.5
2019-04-20T06:08:05.498Z,1014.5
2019-04-20T06:09:11.978Z,1014.5
2019-04-20T06:10:18.936Z,1014.5
2019-04-20T06:11:09.415Z,1014.5
2019-04-20T06:12:28.511Z,1014.5
2019-04-20T06:13:11.209Z,1014.5
2019-04-20T06:14:03.708Z,1014.5
2019-04-20T06:15:09.483Z,1014.5
2019-04-20T06:16:13.850Z,1014.6
2019-04-20T06:17:17.035Z,1014.6
2019-04-20T06:18:15.061Z,1014.6
2019-04-20T06:19:27.041Z,1014.5
2019-04-20T06:20:20.053Z,1014.5
2019-04-20T06:21:25.269Z,1014.6
2019-04-20T06:22:28.580Z,1014.6
2019-04-20T06:23:27.261Z,1014.5
2019-04-20T06:24:29.238Z,1014.5
2019-04-20T06:25:39.493Z,1014.5
2019-04-20T06:26:37.017Z,1014.5
2019-04-20T06:27:29.310Z,1014.5
2019-04-20T06:28:22.202Z,1014.6
2019-04-20T06:29:22.305Z,1014.5
2019-04-20T06:30:26.086Z,1014.6
2019-04-20T06:31:31.089Z,1014.6
2019-04-20T06:32:33.117Z,1014.6
2019-04-20T06:33:50.249Z,1014.6
2019-04-20T06:35:55.607Z,1014.6
2019-04-20T06:36:40.009Z,1014.6
2019-04-20T06:37:36.226Z,1014.6
2019-04-20T06:39:41.687Z,1014.6
2019-04-20T06:42:00.149Z,1014.6
2019-04-20T06:42:39.673Z,1014.7
2019-04-20T06:43:45.802Z,1014.6
2019-04-20T06:44:41.414Z,1014.6
2019-04-20T06:45:54.540Z,1014.6
2019-04-20T06:46:52.436Z,1014.7
2019-04-20T06:47:51.773Z,1014.6
2019-04-20T06:48:52.251Z,1014.7
2019-04-20T06:49:48.696Z,1014.7
2019-04-20T06:50:49.492Z,1014.6
2019-04-20T06:51:53.201Z,1014.7
2019-04-20T06:52:49.186Z,1014.7
2019-04-20T06:53:51.341Z,1014.6
2019-04-20T06:54:48.328Z,1014.7
2019-04-20T06:55:59.210Z,1014.7
2019-04-20T06:57:55.099Z,1014.7
2019-04-20T06:59:03.677Z,1014.7
2019-04-20T07:00:05.819Z,1014.7
2019-04-20T07:01:03.860Z,1014.7
2019-04-20T07:02:11.954Z,1014.7
2019-04-20T07:03:01.776Z,1014.8
2019-04-20T07:04:31.767Z,1014.8
2019-04-20T07:05:10.015Z,1014.8
2019-04-20T07:06:26.716Z,1014.8
2019-04-20T07:07:11.406Z,1014.8
2019-04-20T07:08:29.024Z,1014.8
2019-04-20T07:09:16.990Z,1014.8
2019-04-20T07:11:18.743Z,1014.8
2019-04-20T07:12:12.499Z,1014.8
2019-04-20T07:13:07.953Z,1014.8
2019-04-20T07:14:04.066Z,1014.8
2019-04-20T07:15:14.962Z,1014.8
2019-04-20T07:16:18.462Z,1014.8
2019-04-20T07:17:26.931Z,1014.8
2019-04-20T07:18:18.561Z,1014.8
2019-04-20T07:19:18.993Z,1014.8
2019-04-20T07:20:15.911Z,1014.8
2019-04-20T07:21:23.115Z,1014.8
2019-04-20T07:22:31.405Z,1014.8
2019-04-20T07:23:26.495Z,1014.8
2019-04-20T07:24:25.175Z,1014.8
2019-04-20T07:25:29.284Z,1014.8
2019-04-20T07:26:31.553Z,1014.8
2019-04-20T07:27:22.923Z,1014.8
2019-04-20T07:28:32.775Z,1014.8
2019-04-20T07:29:36.923Z,1014.8
2019-04-20T07:30:29.639Z,1014.9
2019-04-20T07:31:35.239Z,1014.9
2019-04-20T07:32:27.074Z,1014.9
2019-04-20T07:33:32.264Z,1014.9
2019-04-20T07:34:36.217Z,1014.9
2019-04-20T07:35:30.566Z,1014.9
2019-04-20T07:36:37.746Z,1014.9
2019-04-20T07:38:41.798Z,1014.9
2019-04-20T07:39:40.695Z,1015.0
2019-04-20T07:40:38.157Z,1015.0
2019-04-20T07:42:00.655Z,1015.0
2019-04-20T07:42:47.921Z,1015.0
2019-04-20T07:43:57.468Z,1015.0
2019-04-20T07:44:49.400Z,1015.0
2019-04-20T07:45:36.221Z,1015.0
2019-04-20T07:48:07.418Z,1015.0
2019-04-20T07:48:48.924Z,1015.0
2019-04-20T07:49:45.785Z,1015.0
2019-04-20T07:50:40.776Z,1015.0
2019-04-20T07:51:35.492Z,1015.0
2019-04-20T07:52:43.874Z,1015.1
2019-04-20T07:53:50.207Z,1015.0
2019-04-20T07:55:12.125Z,1015.0
2019-04-20T07:55:53.901Z,1015.0
2019-04-20T07:56:53.827Z,1015.0
2019-04-20T07:57:51.320Z,1015.0
2019-04-20T07:58:47.482Z,1015.0
2019-04-20T07:59:56.227Z,1015.0
2019-04-20T08:01:10.331Z,1015.0
2019-04-20T08:02:09.118Z,1015.0
2019-04-20T08:03:03.565Z,1015.0
2019-04-20T08:04:01.947Z,1015.0
2019-04-20T08:04:56.261Z,1015.0
2019-04-20T08:05:51.222Z,1015.0
2019-04-20T08:06:48.737Z,1015.0
2019-04-20T08:07:53.375Z,1015.0
2019-04-20T08:08:57.158Z,1014.9
2019-04-20T08:09:53.269Z,1014.9
2019-04-20T08:11:00.739Z,1015.0
2019-04-20T08:12:11.364Z,1015.0
2019-04-20T08:13:09.350Z,1014.9
2019-04-20T08:14:12.994Z,1014.9
2019-04-20T08:15:11.114Z,1014.9
2019-04-20T08:16:06.369Z,1015.0
2019-04-20T08:17:26.808Z,1014.9
2019-04-20T08:18:13.617Z,1014.9
2019-04-20T08:19:13.259Z,1014.9
2019-04-20T08:20:16.160Z,1014.8
2019-04-20T08:21:16.498Z,1014.9
2019-04-20T08:22:24.617Z,1014.9
2019-04-20T08:23:17.561Z,1014.9
2019-04-20T08:24:15.952Z,1014.9
2019-04-20T08:25:08.314Z,1014.9
2019-04-20T08:26:05.505Z,1014.9
2019-04-20T08:27:04.281Z,1014.9
2019-04-20T08:27:59.774Z,1014.9
2019-04-20T08:29:09.205Z,1014.9
2019-04-20T08:30:20.757Z,1015.0
2019-04-20T08:31:18.203Z,1014.9
2019-04-20T08:32:24.995Z,1014.9
2019-04-20T08:33:24.473Z,1014.9
2019-04-20T08:34:31.333Z,1014.9
2019-04-20T08:35:31.943Z,1014.9
2019-04-20T08:36:26.871Z,1014.9
2019-04-20T08:37:26.839Z,1015.0
2019-04-20T08:38:58.622Z,1014.9
2019-04-20T08:40:36.094Z,1015.0
2019-04-20T08:41:28.603Z,1014.9
2019-04-20T08:42:39.926Z,1014.9
2019-04-20T08:43:47.208Z,1014.9
2019-04-20T08:44:53.813Z,1014.9
2019-04-20T08:45:42.035Z,1014.9
2019-04-20T08:46:38.662Z,1014.9
2019-04-20T08:47:44.511Z,1014.9
2019-04-20T08:48:43.490Z,1014.9
2019-04-20T08:49:41.500Z,1014.9
2019-04-20T08:50:44.085Z,1014.9
2019-04-20T08:51:50.094Z,1014.8
2019-04-20T08:53:03.773Z,1014.8
2019-04-20T08:53:45.091Z,1014.8
2019-04-20T08:54:37.947Z,1014.8
2019-04-20T08:55:41.560Z,1014.8
2019-04-20T08:56:36.083Z,1014.8
2019-04-20T08:57:27.080Z,1014.8
2019-04-20T08:58:27.398Z,1014.8
2019-04-20T08:59:28.914Z,1014.9
2019-04-20T09:00:33.343Z,1014.8
2019-04-20T09:01:32.718Z,1014.8
2019-04-20T09:02:30.523Z,1014.8
2019-04-20T09:03:44.112Z,1014.8
2019-04-20T09:04:37.439Z,1014.8
2019-04-20T09:05:44.936Z,1014.8
2019-04-20T09:06:45.665Z,1014.8
2019-04-20T09:07:47.800Z,1014.8
2019-04-20T09:08:46.582Z,1014.8
2019-04-20T09:09:52.742Z,1014.8
2019-04-20T09:10:56.508Z,1014.8
2019-04-20T09:11:54.362Z,1014.8
2019-04-20T09:12:53.201Z,1014.8
2019-04-20T09:13:45.497Z,1014.7
2019-04-20T09:14:40.267Z,1014.8
2019-04-20T09:15:40.404Z,1014.8
2019-04-20T09:16:47.560Z,1014.8
2019-04-20T09:17:47.434Z,1014.8
2019-04-20T09:18:50.366Z,1014.7
2019-04-20T09:19:50.839Z,1014.8
2019-04-20T09:20:53.792Z,1014.9
2019-04-20T09:21:51.048Z,1014.8
2019-04-20T09:22:58.289Z,1014.8
2019-04-20T09:24:10.094Z,1014.8
2019-04-20T09:25:13.399Z,1014.8
2019-04-20T09:26:10.096Z,1014.8
2019-04-20T09:27:04.547Z,1014.8
2019-04-20T09:27:56.326Z,1014.8
2019-04-20T09:29:09.564Z,1014.8
2019-04-20T09:30:04.577Z,1014.9
2019-04-20T09:31:09.226Z,1014.9
2019-04-20T09:32:11.440Z,1014.9
2019-04-20T09:33:15.627Z,1014.9
2019-04-20T09:34:14.427Z,1014.9
2019-04-20T09:35:14.672Z,1014.9
2019-04-20T09:36:10.011Z,1014.9
2019-04-20T09:37:22.385Z,1014.9
2019-04-20T09:38:15.532Z,1014.9
2019-04-20T09:39:14.068Z,1014.9
2019-04-20T09:40:16.331Z,1014.9
2019-04-20T09:41:27.636Z,1014.9
2019-04-20T09:42:01.728Z,1014.9
2019-04-20T09:43:02.350Z,1014.9
2019-04-20T09:44:02.734Z,1014.9
2019-04-20T09:45:05.847Z,1014.9
2019-04-20T09:46:08.098Z,1014.8
2019-04-20T09:47:06.813Z,1014.9
2019-04-20T09:48:11.595Z,1014.9
2019-04-20T09:49:15.697Z,1014.9
2019-04-20T09:50:22.743Z,1014.9
2019-04-20T09:51:25.818Z,1014.9
2019-04-20T09:52:21.163Z,1014.9
2019-04-20T09:53:24.827Z,1014.9
2019-04-20T09:54:26.784Z,1014.8
2019-04-20T09:55:24.576Z,1014.8
2019-04-20T09:56:26.960Z,1014.8
2019-04-20T09:57:32.160Z,1014.9
2019-04-20T09:58:25.743Z,1014.8
2019-04-20T09:59:33.579Z,1014.9
2019-04-20T10:00:29.127Z,1014.8
2019-04-20T10:01:25.987Z,1014.8
2019-04-20T10:02:23.140Z,1014.8
2019-04-20T10:03:16.563Z,1014.8
2019-04-20T10:04:17.513Z,1014.8
2019-04-20T10:05:17.695Z,1014.8
2019-04-20T10:06:23.056Z,1014.8
2019-04-20T10:07:23.513Z,1014.8
2019-04-20T10:08:19.685Z,1014.8
2019-04-20T10:09:26.873Z,1014.7
2019-04-20T10:10:31.129Z,1014.8
2019-04-20T10:11:21.604Z,1014.8
2019-04-20T10:12:22.321Z,1014.8
2019-04-20T10:13:23.048Z,1014.8
2019-04-20T10:14:24.816Z,1014.8
2019-04-20T10:15:27.661Z,1014.8
2019-04-20T10:16:26.588Z,1014.7
2019-04-20T10:17:31.325Z,1014.7
2019-04-20T10:18:28.126Z,1014.7
2019-04-20T10:19:32.473Z,1014.7
2019-04-20T10:20:33.086Z,1014.7
2019-04-20T10:21:30.216Z,1014.7
2019-04-20T10:22:30.961Z,1014.7
2019-04-20T10:23:32.509Z,1014.7
2019-04-20T10:24:32.777Z,1014.7
2019-04-20T10:25:33.023Z,1014.7
2019-04-20T10:26:34.427Z,1014.7
2019-04-20T10:27:34.749Z,1014.7
2019-04-20T10:28:35.126Z,1014.7
2019-04-20T10:29:35.830Z,1014.7
2019-04-20T10:30:36.768Z,1014.7
2019-04-20T10:31:42.656Z,1014.7
2019-04-20T10:32:42.614Z,1014.7
2019-04-20T10:33:39.623Z,1014.7
2019-04-20T10:34:39.333Z,1014.7
2019-04-20T10:35:41.301Z,1014.6
2019-04-20T10:36:41.729Z,1014.6
2019-04-20T10:37:41.838Z,1014.6
2019-04-20T10:38:42.378Z,1014.6
2019-04-20T10:39:42.843Z,1014.6
2019-04-20T10:40:56.123Z,1014.6
2019-04-20T10:41:50.295Z,1014.6
2019-04-20T10:42:46.087Z,1014.6
2019-04-20T10:43:46.890Z,1014.7
2019-04-20T10:44:48.045Z,1014.7
2019-04-20T10:45:47.044Z,1014.6
2019-04-20T10:46:49.048Z,1014.6
2019-04-20T10:47:48.450Z,1014.6
2019-04-20T10:48:51.677Z,1014.6
2019-04-20T10:49:50.898Z,1014.5
2019-04-20T10:50:50.562Z,1014.6
2019-04-20T10:51:51.680Z,1014.6
2019-04-20T10:52:52.042Z,1014.6
2019-04-20T10:53:54.050Z,1014.6
2019-04-20T10:54:54.402Z,1014.6
2019-04-20T10:55:54.051Z,1014.6
2019-04-20T10:56:55.443Z,1014.6
2019-04-20T10:57:55.644Z,1014.6
2019-04-20T10:58:56.153Z,1014.6
2019-04-20T10:59:57.541Z,1014.6
2019-04-20T11:00:57.743Z,1014.6
2019-04-20T11:01:58.254Z,1014.6
2019-04-20T11:02:59.654Z,1014.6
2019-04-20T11:04:00.718Z,1014.6
2019-04-20T11:05:00.359Z,1014.7
2019-04-20T11:06:01.061Z,1014.7
2019-04-20T11:07:02.834Z,1014.6
2019-04-20T11:08:02.469Z,1014.6
2019-04-20T11:09:04.562Z,1014.6
2019-04-20T11:10:13.356Z,1014.6
2019-04-20T11:11:13.013Z,1014.6
2019-04-20T11:12:06.372Z,1014.5
2019-04-20T11:13:07.331Z,1014.5
2019-04-20T11:14:15.551Z,1014.6
2019-04-20T11:15:08.408Z,1014.5
2019-04-20T11:16:08.506Z,1014.5
2019-04-20T11:17:08.818Z,1014.4
2019-04-20T11:18:09.493Z,1014.5
2019-04-20T11:19:11.513Z,1014.4
2019-04-20T11:20:10.904Z,1014.5
2019-04-20T11:21:11.608Z,1014.5
2019-04-20T11:22:12.598Z,1014.5
2019-04-20T11:23:13.982Z,1014.5
2019-04-20T11:24:14.319Z,1014.5
2019-04-20T11:25:14.484Z,1014.5
2019-04-20T11:26:16.154Z,1014.5
2019-04-20T11:27:16.305Z,1014.5
2019-04-20T11:28:16.675Z,1014.4
2019-04-20T11:29:18.179Z,1014.5
2019-04-20T11:30:18.216Z,1014.4
2019-04-20T11:31:19.924Z,1014.4
2019-04-20T11:32:20.194Z,1014.4
2019-04-20T11:33:20.357Z,1014.4
2019-04-20T11:34:23.576Z,1014.4
2019-04-20T11:35:28.042Z,1014.4
2019-04-20T11:36:23.247Z,1014.3
2019-04-20T11:37:22.837Z,1014.3
2019-04-20T11:38:24.072Z,1014.3
2019-04-20T11:39:25.026Z,1014.3
2019-04-20T11:40:24.945Z,1014.4
2019-04-20T11:41:29.150Z,1014.3
2019-04-20T11:42:27.677Z,1014.3
2019-04-20T11:43:27.055Z,1014.3
2019-04-20T11:44:30.324Z,1014.3
2019-04-20T11:45:28.791Z,1014.2
2019-04-20T11:46:30.213Z,1014.3
2019-04-20T11:47:29.857Z,1014.2
2019-04-20T11:48:31.708Z,1014.2
2019-04-20T11:49:31.391Z,1014.2
2019-04-20T11:50:31.962Z,1014.2
2019-04-20T11:51:33.794Z,1014.1
2019-04-20T11:52:38.856Z,1014.1
2019-04-20T11:53:34.261Z,1014.1
2019-04-20T11:54:34.774Z,1014.1
2019-04-20T11:55:36.236Z,1014.1
2019-04-20T11:56:40.190Z,1014.2
2019-04-20T11:57:37.589Z,1014.1
2019-04-20T11:58:38.734Z,1014.1
2019-04-20T11:59:39.070Z,1014.1
2019-04-20T12:00:46.963Z,1014.1
2019-04-20T12:01:47.943Z,1014.1
2019-04-20T12:02:44.067Z,1014.0
2019-04-20T12:03:51.919Z,1014.1
2019-04-20T12:04:49.205Z,1014.0
2019-04-20T12:05:46.697Z,1014.0
2019-04-20T12:06:43.409Z,1014.0
2019-04-20T12:07:44.809Z,1014.0
2019-04-20T12:08:45.468Z,1014.0
2019-04-20T12:09:45.334Z,1013.9
2019-04-20T12:10:49.286Z,1014.0
2019-04-20T12:11:59.637Z,1014.0
2019-04-20T12:12:51.819Z,1014.0
2019-04-20T12:13:48.994Z,1014.0
2019-04-20T12:14:48.826Z,1014.0
2019-04-20T12:15:49.735Z,1014.0
2019-04-20T12:16:50.235Z,1013.9
2019-04-20T12:17:51.509Z,1013.9
2019-04-20T12:18:52.515Z,1013.9
2019-04-20T12:19:53.170Z,1013.9
2019-04-20T12:20:54.700Z,1014.0
2019-04-20T12:21:53.957Z,1014.0
2019-04-20T12:22:54.751Z,1014.0
2019-04-20T12:23:56.202Z,1014.0
2019-04-20T12:24:56.274Z,1014.0
2019-04-20T12:25:56.773Z,1014.0
2019-04-20T12:26:58.624Z,1014.0
2019-04-20T12:28:00.579Z,1014.0
2019-04-20T12:28:58.881Z,1013.9
2019-04-20T12:29:59.655Z,1013.9
2019-04-20T12:31:06.397Z,1013.9
2019-04-20T12:32:03.501Z,1013.9
2019-04-20T12:33:03.507Z,1013.9
2019-04-20T12:34:02.402Z,1013.9
2019-04-20T12:35:04.296Z,1013.8
2019-04-20T12:36:03.813Z,1014.0
2019-04-20T12:37:05.028Z,1013.9
2019-04-20T12:38:05.287Z,1013.9
2019-04-20T12:39:06.894Z,1013.9
2019-04-20T12:40:07.188Z,1013.9
2019-04-20T12:41:08.370Z,1013.9
2019-04-20T12:42:09.483Z,1013.9
2019-04-20T12:43:09.015Z,1013.9
2019-04-20T12:44:09.947Z,1013.8
2019-04-20T12:45:11.367Z,1013.9
2019-04-20T12:46:13.639Z,1013.8
2019-04-20T12:47:12.018Z,1013.8
2019-04-20T12:48:13.401Z,1013.8
2019-04-20T12:49:13.677Z,1013.8
2019-04-20T12:50:13.815Z,1013.8
2019-04-20T12:51:15.544Z,1013.8
2019-04-20T12:52:16.574Z,1013.8
2019-04-20T12:53:17.063Z,1013.8
2019-04-20T12:54:16.639Z,1013.8
2019-04-20T12:55:17.166Z,1013.7
2019-04-20T12:56:17.875Z,1013.8
2019-04-20T12:57:18.668Z,1013.7